• Join FlightAware (Why Join?)
  • Login
  • US Flag 
12:23AM EDT


 

Airport Tracker/Info


-or-


 

Live Flight TrackerFlight Track Log ✈ EJA829P ✈ 07-Jul-2013 ✈ KHEZ - KSSI

Flight Track Log - Related Links

Times and Time Zones

All times are in EDT time to prevent confusion due to time zone crossing. See the EJA829P flight status page for this flight to view local times or setup timezone preferences in your user account.

Time Position Orientation Groundspeed Altitude Reporting Facility
EDT Latitude Longitude Course Direction KTS MPH feet Rate Location/Type
02:30PM 31.6047 -91.2044 91° East 274 315 4,800  Level Houston Center
02:31PM 31.6036 -91.1211 91° East 257 296 6,300 2,460 Climbing Houston Center
02:32PM 31.6003 -91.0367 93° East 263 303 9,900 2,940 Climbing Houston Center
02:34PM 31.5983 -90.9397 91° East 294 338 12,400 2,460 Climbing Houston Center
02:35PM 31.5964 -90.8311 91° East 326 375 15,000 2,640 Climbing Houston Center
02:36PM 31.5933 -90.7011 92° East 332 382 17,900 2,460 Climbing Houston Center
02:37PM 31.5900 -90.5939 92° East 331 381 20,200 2,040 Climbing Houston Center
02:38PM 31.5869 -90.4853 92° East 333 383 22,200 1,860 Climbing Houston Center
02:39PM 31.5825 -90.3736 93° East 340 391 24,100 1,740 Climbing Houston Center
02:40PM 31.5811 -90.2569 91° East 354 407 25,800 1,620 Climbing Houston Center
02:41PM 31.5758 -90.1411 93° East 356 410 27,500 1,680 Climbing Houston Center
02:42PM 31.5725 -89.9975 92° East 365 420 29,300 1,560 Climbing Houston Center
02:43PM 31.5689 -89.8761 92° East 371 427 30,800 1,440 Climbing Houston Center
02:44PM 31.5647 -89.7517 92° East 378 435 32,300 1,260 Climbing Houston Center
02:45PM 31.5597 -89.6278 93° East 379 436 33,500 960 Climbing Houston Center
02:46PM 31.5533 -89.4819 93° East 399 459 34,400 720 Climbing Houston Center
02:47PM 31.5397 -89.3483 97° East 411 473 35,000 240 Climbing Houston Center
02:48PM 31.4625 -89.2450 131° Southeast 418 481 35,000  Level Houston Center
02:49PM 31.3761 -89.1506 137° Southeast 425 489 35,000  Level Houston Center
02:50PM 31.2922 -89.0550 136° Southeast 425 489 35,000  Level Houston Center
02:51PM 31.2419 -88.8986 111° Southeast 435 501 35,000  Level Houston Center
02:52PM 31.2458 -88.7569 88° East 437 503 35,000  Level Houston Center
02:53PM 31.2492 -88.6161 88° East 435 501 35,000  Level Houston Center
02:54PM 31.2514 -88.4781 89° East 422 486 35,000  Level Houston Center
02:55PM 31.2547 -88.3469 88° East 401 461 35,000  Level Houston Center
02:56PM 31.2561 -88.2161 89° East 396 456 35,000  Level Houston Center
02:57PM 31.2575 -88.0867 89° East 394 453 35,000  Level Houston Center
02:58PM 31.2589 -87.9603 89° East 390 449 35,000  Level Houston Center
02:59PM 31.2594 -87.8119 90° East 381 438 35,000  Level Houston Center
03:00PM 31.2597 -87.6886 90° East 381 438 35,000  Level Houston Center
03:01PM 31.2600 -87.5631 90° East 387 445 35,000  Level Houston Center
03:02PM 31.2611 -87.4386 89° East 385 443 35,000  Level Houston Center
03:03PM 31.2619 -87.3400 89° East 381 438 35,000  Level Jacksonville Center
03:04PM 31.2642 -87.2089 89° East 387 445 35,000  Level Jacksonville Center
03:05PM 31.2644 -87.0800 90° East 387 445 35,000  Level Jacksonville Center
03:06PM 31.2617 -86.9706 92° East 387 445 35,000  Level Jacksonville Center
03:07PM 31.2614 -86.8467 90° East 382 440 35,000  Level Jacksonville Center
03:08PM 31.2781 -86.7186 81° East 387 445 35,000 1,200 Level Jacksonville Center
03:09PM 31.2939 -86.6050 81° East 373 429 37,400 1,380 Climbing Jacksonville Center
03:10PM 31.2969 -86.5006 88° East 343 395 37,800 480 Climbing Jacksonville Center
03:11PM 31.3000 -86.3911 88° East 327 376 38,400 540 Climbing Jacksonville Center
03:12PM 31.3028 -86.2794 88° East 327 376 38,900 300 Climbing Jacksonville Center
03:13PM 31.3186 -86.1608 81° East 335 386 39,000  Climbing Jacksonville Center
03:14PM 31.3386 -86.0303 80° East 375 432 39,000  Level Jacksonville Center
03:15PM 31.3378 -85.8939 90° East 406 467 39,000  Level Jacksonville Center
03:16PM 31.3328 -85.7456 92° East 427 491 39,000  Level Jacksonville Center
03:17PM 31.3275 -85.5969 92° East 442 509 39,000  Level Jacksonville Center
03:18PM 31.3286 -85.4486 89° East 449 517 39,000  Level Jacksonville Center
03:19PM 31.3231 -85.3025 93° East 449 517 39,000  Level Jacksonville Center
03:20PM 31.3194 -85.1614 92° East 449 517 39,000  Level Jacksonville Center
03:21PM 31.3156 -85.0203 92° East 439 505 39,000  Level Jacksonville Center
03:22PM 31.3075 -84.8742 94° East 439 505 39,000  Level Jacksonville Center
03:23PM 31.3056 -84.7333 91° East 439 505 39,000  Level Jacksonville Center
03:24PM 31.2992 -84.5944 93° East 439 505 39,000  Level Jacksonville Center
03:25PM 31.2967 -84.4536 91° East 439 505 39,000  Level Jacksonville Center
03:26PM 31.2900 -84.3172 93° East 427 491 39,000  Level Jacksonville Center
03:27PM 31.2853 -84.1786 92° East 422 486 39,000  Level Jacksonville Center
03:28PM 31.2781 -84.0425 94° East 422 486 39,000  Level Jacksonville Center
03:29PM 31.2731 -83.9036 92° East 422 486 39,000  Level Jacksonville Center
03:30PM 31.2658 -83.7675 94° East 422 486 39,000  Level Jacksonville Center
03:31PM 31.2606 -83.6144 92° East 427 491 39,000 -420 Level Jacksonville Center
03:32PM 31.2569 -83.4808 92° East 422 486 38,200 -1,020 Descending Jacksonville Center
03:33PM 31.2511 -83.3447 93° East 422 486 37,000 -1,380 Descending Jacksonville Center
03:34PM 31.2433 -83.2108 94° East 422 486 35,500 -1,500 Descending Jacksonville Center
03:35PM 31.2414 -83.0675 91° East 422 486 34,000 -1,800 Descending Jacksonville Center
03:36PM 31.2333 -82.9314 94° East 423 487 32,000 -2,340 Descending Jacksonville Center
03:37PM 31.2247 -82.7931 94° East 423 487 29,400 -2,580 Descending Jacksonville Center
03:38PM 31.2164 -82.6569 94° East 423 487 26,900 -2,340 Descending Jacksonville Center
03:39PM 31.2161 -82.5356 90° East 418 481 24,800 -2,340 Descending Jacksonville Center
03:40PM 31.2072 -82.4117 95° East 405 466 22,300 -2,820 Descending Jacksonville Center
03:41PM 31.2006 -82.2878 94° East 392 451 19,200 -3,000 Descending Jacksonville Center
03:42PM 31.1789 -82.1664 102° East 384 442 16,400 -2,940 Descending Jacksonville Center
03:43PM 31.1575 -82.0550 103° East 363 418 13,400 -3,000 Descending Jacksonville Center
03:44PM 31.1378 -81.9508 102° East 341 392 10,400 -3,000 Descending Jacksonville Center
03:45PM 31.1225 -81.8586 101° East 295 339 7,500 -2,700 Descending Jacksonville Center
03:46PM 31.1050 -81.7667 103° East 270 311 5,100 -2,160 Descending Jacksonville Center
03:47PM 31.0875 -81.6869 104° East 258 297 3,200 -1,500 Descending Jacksonville Center
03:48PM 31.0764 -81.6142 100° East 252 290 2,200 -1,020 Descending Jacksonville Center